createdAt,value
2018-09-30T00:01:14.006Z,4.76
2018-09-30T00:03:42.917Z,4.66
2018-09-30T00:06:11.776Z,4.71
2018-09-30T00:08:40.663Z,4.64
2018-09-30T00:11:09.615Z,4.52
2018-09-30T00:13:38.312Z,4.48
2018-09-30T00:16:07.171Z,4.52
2018-09-30T00:18:36.099Z,4.48
2018-09-30T00:21:05.323Z,4.58
2018-09-30T00:23:39.401Z,4.55
2018-09-30T00:26:13.539Z,4.51
2018-09-30T00:28:42.477Z,4.45
2018-09-30T00:31:11.268Z,4.38
2018-09-30T00:33:45.352Z,4.41
2018-09-30T00:36:14.605Z,4.42
2018-09-30T00:38:43.219Z,4.42
2018-09-30T00:41:12.406Z,4.48
2018-09-30T00:43:41.187Z,4.43
2018-09-30T00:46:09.984Z,4.36
2018-09-30T00:48:38.887Z,4.29
2018-09-30T00:51:07.773Z,4.24
2018-09-30T00:53:36.539Z,4.21
2018-09-30T00:56:05.276Z,4.24
2018-09-30T00:58:34.055Z,4.23
2018-09-30T01:01:02.858Z,4.19
2018-09-30T01:03:31.610Z,4.16
2018-09-30T01:06:01.069Z,4.18
2018-09-30T01:08:30.067Z,4.19
2018-09-30T01:10:58.762Z,4.18
2018-09-30T01:13:27.578Z,4.08
2018-09-30T01:15:56.286Z,4.09
2018-09-30T01:18:24.972Z,4.13
2018-09-30T01:20:53.957Z,4.09
2018-09-30T01:23:23.940Z,4.16
2018-09-30T01:25:53.707Z,4.14
2018-09-30T01:28:22.775Z,4.14
2018-09-30T01:30:51.585Z,4.09
2018-09-30T01:33:20.446Z,4.02
2018-09-30T01:35:49.141Z,4.03
2018-09-30T01:38:18.147Z,4.04
2018-09-30T01:40:47.187Z,4.00
2018-09-30T01:43:16.096Z,4.00
2018-09-30T01:45:44.947Z,3.93
2018-09-30T01:48:13.794Z,3.84
2018-09-30T01:50:42.584Z,3.83
2018-09-30T01:53:11.361Z,3.89
2018-09-30T01:55:40.287Z,3.76
2018-09-30T01:58:09.053Z,3.77
2018-09-30T02:00:38.099Z,3.74
2018-09-30T02:03:07.654Z,3.71
2018-09-30T02:05:36.786Z,3.77
2018-09-30T02:08:05.645Z,3.73
2018-09-30T02:10:34.748Z,3.67
2018-09-30T02:13:03.623Z,3.63
2018-09-30T02:15:32.759Z,3.64
2018-09-30T02:18:01.676Z,3.62
2018-09-30T02:20:30.499Z,3.64
2018-09-30T02:22:59.426Z,3.72
2018-09-30T02:25:28.198Z,3.66
2018-09-30T02:27:57.228Z,3.61
2018-09-30T02:30:26.047Z,3.60
2018-09-30T02:32:55.173Z,3.64
2018-09-30T02:35:23.986Z,3.58
2018-09-30T02:37:52.947Z,3.59
2018-09-30T02:40:22.161Z,3.52
2018-09-30T02:42:51.026Z,3.58
2018-09-30T02:45:19.868Z,3.50
2018-09-30T02:47:48.802Z,3.46
2018-09-30T02:50:17.917Z,3.42
2018-09-30T02:52:46.839Z,3.44
2018-09-30T02:55:15.539Z,3.45
2018-09-30T02:57:44.476Z,3.47
2018-09-30T03:00:13.213Z,3.48
2018-09-30T03:02:41.939Z,3.38
2018-09-30T03:05:10.671Z,3.33
2018-09-30T03:07:44.974Z,3.39
2018-09-30T03:10:13.863Z,3.33
2018-09-30T03:12:42.515Z,3.36
2018-09-30T03:15:11.315Z,3.43
2018-09-30T03:17:40.119Z,3.43
2018-09-30T03:20:09.197Z,3.47
2018-09-30T03:22:37.972Z,3.41
2018-09-30T03:25:07.076Z,3.47
2018-09-30T03:27:35.749Z,3.45
2018-09-30T03:30:04.819Z,3.35
2018-09-30T03:32:33.669Z,3.29
2018-09-30T03:35:02.439Z,3.29
2018-09-30T03:37:31.137Z,3.29
2018-09-30T03:39:59.926Z,3.24
2018-09-30T03:42:28.783Z,3.25
2018-09-30T03:44:57.607Z,3.30
2018-09-30T03:47:26.327Z,3.29
2018-09-30T03:49:55.258Z,3.27
2018-09-30T03:52:24.381Z,3.31
2018-09-30T03:54:53.104Z,3.27
2018-09-30T03:57:21.866Z,3.25
2018-09-30T03:59:50.531Z,3.23
2018-09-30T04:05:15.830Z,3.14
2018-09-30T04:07:45.199Z,3.22
2018-09-30T04:10:14.665Z,3.15
2018-09-30T04:12:43.804Z,3.14
2018-09-30T04:15:13.027Z,3.07
2018-09-30T04:17:42.482Z,3.20
2018-09-30T04:20:11.629Z,3.18
2018-09-30T04:22:41.005Z,3.14
2018-09-30T04:25:10.129Z,3.10
2018-09-30T04:27:39.288Z,3.09
2018-09-30T04:30:08.558Z,3.07
2018-09-30T04:32:37.779Z,3.15
2018-09-30T04:35:07.116Z,3.24
2018-09-30T04:37:36.393Z,3.26
2018-09-30T04:40:05.526Z,3.24
2018-09-30T04:42:34.677Z,3.19
2018-09-30T04:45:03.967Z,3.20
2018-09-30T04:47:33.075Z,3.12
2018-09-30T04:50:02.333Z,3.09
2018-09-30T04:52:31.493Z,3.10
2018-09-30T04:55:00.674Z,3.12
2018-09-30T04:57:30.300Z,3.10
2018-09-30T04:59:59.535Z,3.05
2018-09-30T05:02:28.595Z,3.28
2018-09-30T05:04:57.905Z,3.11
2018-09-30T05:07:27.095Z,3.21
2018-09-30T05:09:56.184Z,3.18
2018-09-30T05:12:25.695Z,3.10
2018-09-30T05:14:54.744Z,3.05
2018-09-30T05:17:23.916Z,3.07
2018-09-30T05:19:53.065Z,3.11
2018-09-30T05:22:22.193Z,3.12
2018-09-30T05:24:51.466Z,3.04
2018-09-30T05:27:20.680Z,3.11
2018-09-30T05:29:49.847Z,3.10
2018-09-30T05:32:19.076Z,3.14
2018-09-30T05:34:48.247Z,3.16
2018-09-30T05:37:17.640Z,3.25
2018-09-30T05:39:46.933Z,3.20
2018-09-30T05:42:16.176Z,3.31
2018-09-30T05:44:45.344Z,3.69
2018-09-30T05:47:14.588Z,3.94
2018-09-30T05:49:43.952Z,4.00
2018-09-30T05:52:13.178Z,4.06
2018-09-30T05:54:42.119Z,4.03
2018-09-30T05:57:11.455Z,3.85
2018-09-30T05:59:40.527Z,3.68
2018-09-30T06:02:09.770Z,3.67
2018-09-30T06:04:39.121Z,3.76
2018-09-30T06:07:08.478Z,4.30
2018-09-30T06:09:37.756Z,4.36
2018-09-30T06:12:06.921Z,4.20
2018-09-30T06:14:36.020Z,4.16
2018-09-30T06:17:05.025Z,4.63
2018-09-30T06:19:34.218Z,4.77
2018-09-30T06:22:03.333Z,4.99
2018-09-30T06:24:32.519Z,5.01
2018-09-30T06:27:01.761Z,4.71
2018-09-30T06:29:31.127Z,4.85
2018-09-30T06:32:00.769Z,4.99
2018-09-30T06:34:29.821Z,5.36
2018-09-30T06:36:58.945Z,5.54
2018-09-30T06:39:28.106Z,5.60
2018-09-30T06:41:57.441Z,5.80
2018-09-30T06:44:26.704Z,5.87
2018-09-30T06:46:56.038Z,5.99
2018-09-30T06:49:25.506Z,6.09
2018-09-30T06:51:55.010Z,6.18
2018-09-30T06:54:24.129Z,6.24
2018-09-30T06:56:53.320Z,6.35
2018-09-30T06:59:22.503Z,6.46
2018-09-30T07:01:51.826Z,6.61
2018-09-30T07:04:20.920Z,6.82
2018-09-30T07:06:50.287Z,6.93
2018-09-30T07:09:19.493Z,6.95
2018-09-30T07:11:48.929Z,7.11
2018-09-30T07:14:18.284Z,7.30
2018-09-30T07:16:47.587Z,7.44
2018-09-30T07:19:17.300Z,7.52
2018-09-30T07:21:46.544Z,7.73
2018-09-30T07:24:15.584Z,7.91
2018-09-30T07:26:44.629Z,7.98
2018-09-30T07:29:13.784Z,8.09
2018-09-30T07:31:43.023Z,8.20
2018-09-30T07:34:12.207Z,8.24
2018-09-30T07:36:41.549Z,8.43
2018-09-30T07:39:11.499Z,8.43
2018-09-30T07:41:40.777Z,8.62
2018-09-30T07:44:10.289Z,8.80
2018-09-30T07:46:39.695Z,9.00
2018-09-30T07:49:08.846Z,8.94
2018-09-30T07:51:38.036Z,8.99
2018-09-30T07:54:07.370Z,9.11
2018-09-30T07:56:36.695Z,9.15
2018-09-30T07:59:05.811Z,9.31
2018-09-30T08:01:35.031Z,9.43
2018-09-30T08:04:04.201Z,9.50
2018-09-30T08:06:33.385Z,9.53
2018-09-30T08:09:02.679Z,9.77
2018-09-30T08:11:32.059Z,9.92
2018-09-30T08:14:06.561Z,9.91
2018-09-30T08:16:37.215Z,10.13
2018-09-30T08:19:09.208Z,10.25
2018-09-30T08:21:38.932Z,10.39
2018-09-30T08:24:10.034Z,10.49
2018-09-30T08:26:40.062Z,10.63
2018-09-30T08:29:10.031Z,10.72
2018-09-30T08:31:39.584Z,10.92
2018-09-30T08:34:09.460Z,10.93
2018-09-30T08:36:38.991Z,11.14
2018-09-30T08:39:09.634Z,11.28
2018-09-30T08:41:38.967Z,11.27
2018-09-30T08:44:13.011Z,11.48
2018-09-30T08:46:44.279Z,11.56
2018-09-30T08:49:13.592Z,11.77
2018-09-30T08:51:43.019Z,11.92
2018-09-30T08:54:12.956Z,12.03
2018-09-30T08:56:43.033Z,12.07
2018-09-30T08:59:15.570Z,12.32
2018-09-30T09:01:45.653Z,12.46
2018-09-30T09:04:15.282Z,12.57
2018-09-30T09:06:44.596Z,12.68
2018-09-30T09:09:14.104Z,12.80
2018-09-30T09:11:43.412Z,12.72
2018-09-30T09:14:12.668Z,12.87
2018-09-30T09:16:46.047Z,12.99
2018-09-30T09:19:15.684Z,13.12
2018-09-30T09:21:45.147Z,13.24
2018-09-30T09:24:14.455Z,13.44
2018-09-30T09:26:43.810Z,13.46
2018-09-30T09:29:12.850Z,13.52
2018-09-30T09:31:42.252Z,13.50
2018-09-30T09:34:11.254Z,13.57
2018-09-30T09:36:40.369Z,13.79
2018-09-30T09:39:10.868Z,13.81
2018-09-30T09:41:40.124Z,14.05
2018-09-30T09:44:09.630Z,14.01
2018-09-30T09:46:42.142Z,14.13
2018-09-30T09:49:12.816Z,14.44
2018-09-30T09:51:48.882Z,14.41
2018-09-30T09:54:18.729Z,14.34
2018-09-30T09:56:50.245Z,14.68
2018-09-30T09:59:19.988Z,14.55
2018-09-30T10:01:49.156Z,15.04
2018-09-30T10:04:18.200Z,15.12
2018-09-30T10:06:47.548Z,15.45
2018-09-30T10:09:16.816Z,15.54
2018-09-30T10:11:46.060Z,16.19
2018-09-30T10:14:15.210Z,15.84
2018-09-30T10:16:44.555Z,15.42
2018-09-30T10:19:13.716Z,15.79
2018-09-30T10:21:42.863Z,15.80
2018-09-30T10:24:12.278Z,15.77
2018-09-30T10:26:41.488Z,15.90
2018-09-30T10:29:10.841Z,16.00
2018-09-30T10:31:40.412Z,15.82
2018-09-30T10:34:10.320Z,15.78
2018-09-30T10:36:45.872Z,16.02
2018-09-30T10:39:15.095Z,15.99
2018-09-30T10:41:44.228Z,15.93
2018-09-30T10:44:13.619Z,15.99
2018-09-30T10:46:42.749Z,15.82
2018-09-30T10:49:11.915Z,16.15
2018-09-30T10:51:41.303Z,16.15
2018-09-30T10:54:10.375Z,16.26
2018-09-30T10:56:39.766Z,16.35
2018-09-30T10:59:08.889Z,16.34
2018-09-30T11:01:38.356Z,16.46
2018-09-30T11:04:16.591Z,16.46
2018-09-30T11:06:45.623Z,16.71
2018-09-30T11:09:14.587Z,17.47
2018-09-30T11:11:43.827Z,19.42
2018-09-30T11:14:13.189Z,22.17
2018-09-30T11:16:42.396Z,22.54
2018-09-30T11:19:11.488Z,23.58
2018-09-30T11:21:40.892Z,23.66
2018-09-30T11:24:10.191Z,22.53
2018-09-30T11:26:39.495Z,24.33
2018-09-30T11:29:08.800Z,23.66
2018-09-30T11:31:38.049Z,25.11
2018-09-30T11:34:07.167Z,24.92
2018-09-30T11:36:36.492Z,24.70
2018-09-30T11:39:08.503Z,25.78
2018-09-30T11:41:37.574Z,26.10
2018-09-30T11:44:06.618Z,25.71
2018-09-30T11:46:35.846Z,23.64
2018-09-30T11:49:05.407Z,21.29
2018-09-30T11:51:34.546Z,20.14
2018-09-30T11:54:03.919Z,19.71
2018-09-30T11:56:33.299Z,19.29
2018-09-30T11:59:02.613Z,18.79
2018-09-30T12:01:33.244Z,18.32
2018-09-30T12:04:02.680Z,18.81
2018-09-30T12:06:31.897Z,20.06
2018-09-30T12:09:01.069Z,18.79
2018-09-30T12:11:30.147Z,18.35
2018-09-30T12:13:59.281Z,17.67
2018-09-30T12:16:28.468Z,18.02
2018-09-30T12:18:57.636Z,18.30
2018-09-30T12:21:27.109Z,18.30
2018-09-30T12:23:56.111Z,18.57
2018-09-30T12:26:25.262Z,18.22
2018-09-30T12:28:54.626Z,18.16
2018-09-30T12:31:24.069Z,18.14
2018-09-30T12:33:53.327Z,18.32
2018-09-30T12:36:22.464Z,18.08
2018-09-30T12:38:51.628Z,17.84
2018-09-30T12:41:21.024Z,17.77
2018-09-30T12:43:50.015Z,17.82
2018-09-30T12:46:19.539Z,17.97
2018-09-30T12:48:49.075Z,17.89
2018-09-30T12:51:18.378Z,17.97
2018-09-30T12:53:47.423Z,18.13
2018-09-30T12:56:16.542Z,20.04
2018-09-30T12:58:45.755Z,22.15
2018-09-30T13:01:14.836Z,26.95
2018-09-30T13:03:43.929Z,27.26
2018-09-30T13:06:13.437Z,28.21
2018-09-30T13:08:43.288Z,28.04
2018-09-30T13:11:12.459Z,29.46
2018-09-30T13:13:41.637Z,30.07
2018-09-30T13:16:11.060Z,29.76
2018-09-30T13:18:40.340Z,28.46
2018-09-30T13:21:09.553Z,28.46
2018-09-30T13:23:38.754Z,28.00
2018-09-30T13:26:07.964Z,28.27
2018-09-30T13:28:37.135Z,28.44
2018-09-30T13:31:06.244Z,29.11
2018-09-30T13:33:35.302Z,29.93
2018-09-30T13:36:04.662Z,28.84
2018-09-30T13:38:34.022Z,30.18
2018-09-30T13:41:03.354Z,28.98
2018-09-30T13:43:32.424Z,29.78
2018-09-30T13:46:01.966Z,23.00
2018-09-30T13:48:31.161Z,21.48
2018-09-30T13:51:00.465Z,20.65
2018-09-30T13:53:29.839Z,20.80
2018-09-30T13:55:58.945Z,19.82
2018-09-30T13:58:28.514Z,19.46
2018-09-30T14:00:57.852Z,19.50
2018-09-30T14:03:26.889Z,19.33
2018-09-30T14:05:56.150Z,19.49
2018-09-30T14:08:25.507Z,19.43
2018-09-30T14:10:54.556Z,18.92
2018-09-30T14:13:23.804Z,18.99
2018-09-30T14:15:53.143Z,18.70
2018-09-30T14:18:22.402Z,18.75
2018-09-30T14:20:51.627Z,18.83
2018-09-30T14:23:21.006Z,18.81
2018-09-30T14:25:50.323Z,18.80
2018-09-30T14:28:19.397Z,18.41
2018-09-30T14:30:48.732Z,18.54
2018-09-30T14:33:17.982Z,18.50
2018-09-30T14:35:47.243Z,18.50
2018-09-30T14:38:16.457Z,18.41
2018-09-30T14:40:45.727Z,18.19
2018-09-30T14:43:14.778Z,18.15
2018-09-30T14:45:44.110Z,17.97
2018-09-30T14:48:13.215Z,17.90
2018-09-30T14:50:42.424Z,18.12
2018-09-30T14:53:11.488Z,18.16
2018-09-30T14:55:40.720Z,18.10
2018-09-30T14:58:10.091Z,18.06
2018-09-30T15:00:42.219Z,18.03
2018-09-30T15:03:11.365Z,17.95
2018-09-30T15:05:40.772Z,17.89
2018-09-30T15:08:09.965Z,17.90
2018-09-30T15:10:39.159Z,17.85
2018-09-30T15:13:08.461Z,17.80
2018-09-30T15:15:37.564Z,17.72
2018-09-30T15:18:06.760Z,17.63
2018-09-30T15:20:36.006Z,17.46
2018-09-30T15:23:05.053Z,17.49
2018-09-30T15:25:34.263Z,17.51
2018-09-30T15:28:03.457Z,17.33
2018-09-30T15:30:32.743Z,17.38
2018-09-30T15:33:01.803Z,17.34
2018-09-30T15:35:31.155Z,17.20
2018-09-30T15:38:00.651Z,17.27
2018-09-30T15:40:29.950Z,17.19
2018-09-30T15:42:59.527Z,17.04
2018-09-30T15:45:28.645Z,16.58
2018-09-30T15:47:57.736Z,16.95
2018-09-30T15:50:26.935Z,16.86
2018-09-30T15:52:56.236Z,16.89
2018-09-30T15:55:25.487Z,16.71
2018-09-30T15:57:54.849Z,16.65
2018-09-30T16:00:24.183Z,15.88
2018-09-30T16:02:53.227Z,16.27
2018-09-30T16:05:22.471Z,15.93
2018-09-30T16:07:51.607Z,16.02
2018-09-30T16:10:23.764Z,15.61
2018-09-30T16:12:53.368Z,15.16
2018-09-30T16:15:22.772Z,15.12
2018-09-30T16:17:52.271Z,14.95
2018-09-30T16:20:21.543Z,14.73
2018-09-30T16:22:50.761Z,14.62
2018-09-30T16:25:19.909Z,14.36
2018-09-30T16:28:51.904Z,14.35
2018-09-30T16:31:21.335Z,14.02
2018-09-30T16:33:50.558Z,13.80
2018-09-30T16:36:19.913Z,13.64
2018-09-30T16:38:49.153Z,13.57
2018-09-30T16:41:18.545Z,13.28
2018-09-30T16:43:47.536Z,13.22
2018-09-30T16:46:16.815Z,13.17
2018-09-30T16:48:46.092Z,13.08
2018-09-30T16:51:15.528Z,12.80
2018-09-30T16:53:44.756Z,12.80
2018-09-30T16:56:14.084Z,12.62
2018-09-30T16:58:43.353Z,12.35
2018-09-30T17:01:12.692Z,12.28
2018-09-30T17:03:41.861Z,12.20
2018-09-30T17:06:11.190Z,12.05
2018-09-30T17:08:40.240Z,12.06
2018-09-30T17:11:09.580Z,11.79
2018-09-30T17:13:38.527Z,11.58
2018-09-30T17:16:08.411Z,11.46
2018-09-30T17:18:37.784Z,11.39
2018-09-30T17:21:07.241Z,11.27
2018-09-30T17:23:36.635Z,11.21
2018-09-30T17:26:05.728Z,10.99
2018-09-30T17:28:34.907Z,10.91
2018-09-30T17:31:04.514Z,10.83
2018-09-30T17:33:34.018Z,10.76
2018-09-30T17:36:03.231Z,10.69
2018-09-30T17:38:32.396Z,10.57
2018-09-30T17:41:01.828Z,10.49
2018-09-30T17:43:31.193Z,10.37
2018-09-30T17:46:00.344Z,10.21
2018-09-30T17:48:29.509Z,10.16
2018-09-30T17:50:58.976Z,10.05
2018-09-30T17:53:28.180Z,10.04
2018-09-30T17:55:57.439Z,9.96
2018-09-30T17:58:26.789Z,9.85
2018-09-30T18:00:56.327Z,9.72
2018-09-30T18:03:25.502Z,9.72
2018-09-30T18:05:55.932Z,9.56
2018-09-30T18:08:25.211Z,9.63
2018-09-30T18:10:54.582Z,9.43
2018-09-30T18:13:23.926Z,9.26
2018-09-30T18:15:53.036Z,9.25
2018-09-30T18:18:22.431Z,9.30
2018-09-30T18:20:51.950Z,9.21
2018-09-30T18:23:22.026Z,9.08
2018-09-30T18:25:51.394Z,9.12
2018-09-30T18:28:20.931Z,9.01
2018-09-30T18:30:50.176Z,8.94
2018-09-30T18:33:19.371Z,8.84
2018-09-30T18:35:48.610Z,8.79
2018-09-30T18:38:17.835Z,8.64
2018-09-30T18:40:48.409Z,8.61
2018-09-30T18:43:17.743Z,8.50
2018-09-30T18:45:46.995Z,8.45
2018-09-30T18:48:16.135Z,8.46
2018-09-30T18:50:45.504Z,8.46
2018-09-30T18:53:14.744Z,8.26
2018-09-30T18:55:44.020Z,8.28
2018-09-30T18:58:13.306Z,8.23
2018-09-30T19:00:44.967Z,8.19
2018-09-30T19:03:15.985Z,8.16
2018-09-30T19:05:45.328Z,8.06
2018-09-30T19:08:14.982Z,7.98
2018-09-30T19:10:44.796Z,7.98
2018-09-30T19:13:15.960Z,7.81
2018-09-30T19:15:45.556Z,7.88
2018-09-30T19:18:15.093Z,7.78
2018-09-30T19:20:44.641Z,7.80
2018-09-30T19:23:14.113Z,7.73
2018-09-30T19:25:44.287Z,7.68
2018-09-30T19:28:15.041Z,7.60
2018-09-30T19:30:45.100Z,7.74
2018-09-30T19:33:14.221Z,7.65
2018-09-30T19:35:43.568Z,7.61
2018-09-30T19:38:15.572Z,7.50
2018-09-30T19:40:45.908Z,7.48
2018-09-30T19:43:15.465Z,7.45
2018-09-30T19:45:48.169Z,7.45
2018-09-30T19:48:21.740Z,7.29
2018-09-30T19:50:52.515Z,7.26
2018-09-30T19:53:22.595Z,7.17
2018-09-30T19:55:52.659Z,7.12
2018-09-30T19:58:23.546Z,7.12
2018-09-30T20:00:52.943Z,7.13
2018-09-30T20:03:22.659Z,7.05
2018-09-30T20:05:52.045Z,7.00
2018-09-30T20:08:21.956Z,6.98
2018-09-30T20:10:51.284Z,6.93
2018-09-30T20:13:23.909Z,6.92
2018-09-30T20:15:53.460Z,6.86
2018-09-30T20:18:23.369Z,6.85
2018-09-30T20:20:52.782Z,6.82
2018-09-30T20:23:21.830Z,6.69
2018-09-30T20:25:50.981Z,6.67
2018-09-30T20:28:20.127Z,6.71
2018-09-30T20:30:49.384Z,6.64
2018-09-30T20:33:18.644Z,6.64
2018-09-30T20:35:48.039Z,6.56
2018-09-30T20:38:17.995Z,6.55
2018-09-30T20:40:47.572Z,6.47
2018-09-30T20:43:16.762Z,6.49
2018-09-30T20:45:46.092Z,6.47
2018-09-30T20:48:15.361Z,6.39
2018-09-30T20:50:44.654Z,6.40
2018-09-30T20:53:14.362Z,6.34
2018-09-30T20:55:43.638Z,6.30
2018-09-30T20:58:13.988Z,6.24
2018-09-30T21:00:43.215Z,6.23
2018-09-30T21:03:14.244Z,6.21
2018-09-30T21:05:55.160Z,6.19
2018-09-30T21:08:24.757Z,6.14
2018-09-30T21:10:53.937Z,6.18
2018-09-30T21:13:23.279Z,6.08
2018-09-30T21:15:52.623Z,6.10
2018-09-30T21:18:21.755Z,6.03
2018-09-30T21:20:50.974Z,6.05
2018-09-30T21:23:20.277Z,6.01
2018-09-30T21:25:49.642Z,5.95
2018-09-30T21:28:18.972Z,5.88
2018-09-30T21:30:49.006Z,5.87
2018-09-30T21:33:18.317Z,5.86
2018-09-30T21:35:47.871Z,5.87
2018-09-30T21:38:17.595Z,6.02
2018-09-30T21:40:46.972Z,5.72
2018-09-30T21:43:16.853Z,5.70
2018-09-30T21:45:46.252Z,5.68
2018-09-30T21:48:17.170Z,5.62
2018-09-30T21:50:46.303Z,5.34
2018-09-30T21:53:16.611Z,5.51
2018-09-30T21:55:46.032Z,5.66
2018-09-30T21:58:15.285Z,5.64
2018-09-30T22:01:00.479Z,5.66
2018-09-30T22:03:30.844Z,5.62
2018-09-30T22:06:00.170Z,5.60
2018-09-30T22:08:32.210Z,5.60
2018-09-30T22:11:01.766Z,5.56
2018-09-30T22:13:30.935Z,5.46
2018-09-30T22:16:00.355Z,5.49
2018-09-30T22:18:29.563Z,5.39
2018-09-30T22:20:58.666Z,5.32
2018-09-30T22:23:27.840Z,5.30
2018-09-30T22:25:57.351Z,5.19
2018-09-30T22:28:27.121Z,5.35
2018-09-30T22:30:56.408Z,5.29
2018-09-30T22:33:26.035Z,5.23
2018-09-30T22:35:55.332Z,5.26
2018-09-30T22:38:24.732Z,5.22
2018-09-30T22:40:53.935Z,5.11
2018-09-30T22:43:23.400Z,4.92
2018-09-30T22:45:56.284Z,5.04
2018-09-30T22:48:25.974Z,5.07
2018-09-30T22:51:03.819Z,4.96
2018-09-30T22:53:34.580Z,4.93
2018-09-30T22:56:04.558Z,4.97
2018-09-30T22:58:34.655Z,4.99
2018-09-30T23:01:04.611Z,4.99
2018-09-30T23:03:34.852Z,5.04
2018-09-30T23:06:10.181Z,5.13
2018-09-30T23:08:39.457Z,5.09
2018-09-30T23:11:08.687Z,5.16
2018-09-30T23:13:37.714Z,5.21
2018-09-30T23:16:07.115Z,5.25
2018-09-30T23:18:36.353Z,5.28
2018-09-30T23:21:05.364Z,5.35
2018-09-30T23:23:34.623Z,5.38
2018-09-30T23:26:03.843Z,5.39
2018-09-30T23:28:33.019Z,5.60
2018-09-30T23:31:04.184Z,5.66
2018-09-30T23:33:33.416Z,5.67
2018-09-30T23:36:02.685Z,5.71
2018-09-30T23:38:31.974Z,5.74
2018-09-30T23:41:01.187Z,5.80
2018-09-30T23:43:30.587Z,5.74
2018-09-30T23:45:59.822Z,5.74
2018-09-30T23:48:29.089Z,5.72
2018-09-30T23:50:58.926Z,5.77
2018-09-30T23:53:28.186Z,5.71
2018-09-30T23:55:57.668Z,5.73
2018-09-30T23:58:26.887Z,5.80
